Eureka Springs, Arkansas
Current Conditions -  °F | °C
As of 3:57 AM on Friday 31 Oct 2014 (Local Time) from KROG Reporting Station
Clear Clear  
Wind Chill: 50°   Ceiling: Unl
Heat Index: 50°   Visibility: 10mi
Dew Point: 40°   Wind: 12mph
Humidity: 68%   Direction: 350°N
Pressure: 30.18"   Gusts: 18mph
Location:  36.4°N, 93.74°W
Report Text: KROG 310857Z AUTO 35010G16KT 10SM CLR 10/04 A3018 RMK AO2 SLP213 T01000044 53008 TSNO $
Loading
Personal Weather Stations






























Interactive Weather Map
Tropical Storm Tracking
New forecast layout! Learn more

10-Day Weather Forecast

Advertisements
Track Severe Weather on mobile